Detall de PIREP

Printer-friendly versionPDF version

[2016/08/15 07:35:00]
Flight IATA:CT1004
Pilot Number:012
Company ICAO:CAT
Aircraft Type:C750/F
PAX:4
Departing Airport: LFMP
Destination Airport: ENKB
Alternate Airport:ENVA
Online: VATSIM
Route:SIJAN A27 BRY TULIP UY12 SPY UZ704 KONOM UZ733 GREFI P603 FLS Z108 INTUM Z289 TUMIM
Flight Level:F510
No Slew and time accel
No pause
Crash detect
Detect pilot in Cockpit between each 30 and 45 minutes
07:35 Zero fuel Weight: 22869 Lbs, Fuel Weight: 9043 Lbs
07:35 VATSIM:LFMP 150700Z AUTO 27005KT 9999 OVC018 22/17 Q1019 TEMPO BKN009
07:35 VATSIM:ENKB 150720Z 25008KT 190V280 9999 -SHRA FEW006 SCT011 BKN024 12/11 Q1023
07:35 SUMMER CHARTER
07:35 Parking Brakes off
07:38 Take-off
07:38 Take off Weight: 31848 Lbs
07:38 Wind: 270º @ 003 Knots Heading: 327º
07:38 POS N42º 44´ 54´´ E002º 51´ 58´´
07:38 Gear Up: 154 Knots
07:38 Flaps:3 at 154 Knots
07:38 Flaps:2 at 166 Knots
07:38 Flaps:0 at 171 Knots
07:53 Wind:245º@030 Knots Heading: 003º Ground Speed: 518 Knots Altitude 42080 ft
08:00 TOC
08:00 Fuel Weight: 8184 Lb
08:08 Wind:276º@009 Knots Heading: 016º Ground Speed: 509 Knots Altitude 51177 ft
08:23 Wind:293º@009 Knots Heading: 003º Ground Speed: 502 Knots Altitude 51243 ft
08:38 Wind:325º@008 Knots Heading: 003º Ground Speed: 503 Knots Altitude 51322 ft
08:53 Wind:331º@009 Knots Heading: 072º Ground Speed: 510 Knots Altitude 51351 ft
09:08 Wind:332º@011 Knots Heading: 006º Ground Speed: 501 Knots Altitude 51368 ft
09:23 Wind:331º@012 Knots Heading: 001º Ground Speed: 499 Knots Altitude 51338 ft
09:38 Wind:324º@015 Knots Heading: 004º Ground Speed: 500 Knots Altitude 51318 ft
09:48 TOD
09:48 Fuel Weight: 6386 Lb
09:53 Wind:343º@056 Knots Heading: 021º Ground Speed: 440 Knots Altitude 37723 ft
10:08 Wind:320º@023 Knots Heading: 037º Ground Speed: 349 Knots Altitude 12230 ft
10:23 Wind:304º@008 Knots Heading: 033º Ground Speed: 266 Knots Altitude 7791 ft
10:27 Flaps:2 at 219 Knots
10:28 Flaps:3 at 191 Knots
10:28 Gear Down: 169 Knots
10:28 Flaps:4 at 161 Knots
10:29 Flaps:5 at 144 Knots
10:34 TouchDown:Rate -209 ft/min Speed: 113 Knots
10:34 VATSIM:ENKB 151020Z 24007KT 9999 VCSH FEW007 SCT011 BKN017 12/11 Q1024
10:34 Land
10:34 Wind:239º@007 Knots
10:34 Heading: 256º
10:34 Flight Duration: 02:56
10:34 Landing Weight: 28603 Lbs
10:34 POS N63º 06´ 39´´ E007º 49´ 11´´
10:36 Parking brakes on
10:36 Block to Block Duration: 03:01
10:36 Final Fuel: 5705 Lbls
10:36 Spent Fuel: 3337 Lbls
10:36 Flight Length: 1307 NM
10:36 TOD Land Length: 240 NM

Exportar CSV

Powered by Drupal - Modified by Danger4k